​ ​

Форум клана ЧПУшников

Информация о пользователе

Привет, Гость! Войдите или зарегистрируйтесь.


Вы здесь » Форум клана ЧПУшников » Лазерные станки


Лазерные станки

Тем 561 страница 640 из 725

Тема Ответов Просмотров Последнее сообщение
7 547 19-08-2016 12:28:43  Юрий Анатольевич
7 557 16-08-2016 14:15:08  Юрий Анатольевич
21 1881 29-07-2016 11:28:19  ЫХ-000
3 307 25-07-2016 12:13:13  Kuz
1 301 20-07-2016 16:00:47  Maxim Korolev
6 1281 19-07-2016 20:00:25  YuSTas
2 144 18-07-2016 10:25:53  byshaeva
81 2814 17-07-2016 11:06:33  Сергей Кравчик
2 296 09-07-2016 14:27:04  Killa312
11 1232 07-07-2016 15:18:42  Hotory
25 881 27-06-2016 21:44:32  Salon-max
38 2281 27-06-2016 05:30:23  Юрецкий
14 536 26-06-2016 11:49:07  Quark
48 1515 24-06-2016 20:06:01  Иван1985
9 727 24-06-2016 19:54:50  Иван1985
16 764 24-06-2016 15:25:23  Sergey AA
2 149 24-06-2016 12:14:53  messer1988
8 578 22-06-2016 15:04:25  Sergey AA
8 2210 16-06-2016 22:36:09  megagad
580 Лазерное оборудование  Администратор  [ 1 2 3 ]
204 19141 12-06-2016 11:02:33  Andrey55
4 315 06-06-2016 09:19:33  Zmeei
24 1381 02-06-2016 16:29:32  Sofka
16 446 02-06-2016 09:43:13  ilcomp
3 175 31-05-2016 11:04:49  SmileCat
14 521 29-05-2016 10:38:37  Neudrums
19 1148 28-05-2016 00:03:48  Sborka
19 297 25-05-2016 12:15:46  Mikky
8 452 24-05-2016 15:31:24  sonr
21 4463 23-05-2016 23:42:46  Avel
590 Волнистый рез  angrydemon
4 371 23-05-2016 17:44:30  YuSTas
2 149 05-05-2016 11:02:05  Kuz
7 471 04-05-2016 01:16:19  snowman
10 551 28-04-2016 20:21:01  Kirian
1 177 28-04-2016 19:58:34  Kirian
37 1510 28-04-2016 14:14:04  neotex
3 1014 27-04-2016 20:39:04  andrey_e
6 344 27-04-2016 16:16:09  denisej
598 Reci s2  Neudrums
35 978 26-04-2016 21:17:31  Элинка
5 551 25-04-2016 16:52:18  MPN
15 2034 23-04-2016 22:53:06  Sokrat
9 626 23-04-2016 17:45:11  Tab
35 1352 23-04-2016 13:05:00  Valera5609
18 1084 21-04-2016 12:07:58  f.laser
1 194 17-04-2016 23:10:04  megagad
605 Резка с углекислотой  Виктор Краски
23 1156 17-04-2016 08:59:55  Flint2015
13 2023 15-04-2016 11:34:20  ImageLaser
11 371 11-04-2016 14:35:21  MaxMaster
13 450 09-04-2016 20:30:46  aldushin
5 304 06-04-2016 17:28:09  daguss
610 Закрыта Фото готовых работ выполненных на лазере  Администратор  [ 1 2 3  10 ]
991 101280 29-03-2016 17:50:18  sva-don
611 Закрыта Резко упала мощность  Neudrums
10 561 24-03-2016 00:59:57  Neudrums
5 566 22-03-2016 20:12:39  Дилик
613 Прошу помощи.  Назар
5 462 16-03-2016 09:51:09  Назар
8 281 14-03-2016 16:51:53  Расулыч
7 624 10-03-2016 20:36:59  chirik
5 875 07-03-2016 20:32:32  Flint2015
19 1927 04-03-2016 17:27:39  Airside
4 263 29-02-2016 22:43:44  nikson
5 224 27-02-2016 08:50:26  Flint2015
620 Тестирование размера реза  Виктор Краски
9 534 26-02-2016 16:55:55  daguss
621 кривая резка  Восходник
17 546 26-02-2016 00:06:30  semerochka
80 7616 22-02-2016 20:51:36  Kinetic
17 1178 22-02-2016 12:02:26  Kinetic
5 839 14-02-2016 15:24:59  gabber
7 828 14-02-2016 12:43:54  Zippo
12 424 12-02-2016 17:15:38  Yaroslavl
2 267 12-02-2016 10:23:44  Администратор
22 1009 07-02-2016 15:27:40  Imobile
6 380 28-01-2016 17:09:21  StarPOM
25 1434 26-01-2016 15:23:58  Zippo
3 291 07-01-2016 00:45:42  okruk
4 301 05-01-2016 10:25:43  markaru
7 286 24-12-2015 12:08:34  lexus80
22 5236 21-12-2015 14:22:31  Kuz
14 520 14-12-2015 15:59:50  YuSTas
8 375 12-12-2015 20:20:10  Shamankiller
15 787 12-12-2015 18:02:39  racon75
38 1201 08-12-2015 23:46:50  asor
35 1002 08-12-2015 18:35:57  dm6
8 437 07-12-2015 21:25:28  Dimon

Вы здесь » Форум клана ЧПУшников » Лазерные станки